< < Back
Terminal Aerodrome Forecast


Current Version              Previous Versions:   1  2  3  4  5  6  7  8  9  

Terminal Aerodrome Forecast

080
FTUS42 KGSP 062337
TAFAND
TAF
KAND 062337Z 0700/0724 20005KT P6SM BKN250
     FM070900 00000KT P6SM SCT250
     FM071100 00000KT 5SM BR FEW250
     FM071300 00000KT P6SM FEW250
     FM071800 24006KT P6SM FEW050=

Latest METAR

864
SAUS70 KWBC 070000
MTRAND
METAR KAND 062356Z AUTO 22007KT 10SM CLR 27/22 A3008 RMK AO2 SLP177
T02720217 10311 20272 56004


USA.gov is the U.S. government's official web portal to all federal, state and local government web resources and services.